Time;durP1;ratioP1;P1;durP2;ratioP2;P2;SDS_P1;SDS_P2;PMS_P1;PMS_P2;Temp;Humidity;BMP_temperature;BMP_pressure;BME280_temperature;BME280_humidity;BME280_pressure;Samples;Min_cycle;Max_cycle;Signal;HPM_P1;HPM_P2
2022/05/06 00:00:04;;;;;;;;;;;;;;;11.07;80.06;96967.16;4888161;29;20330;-73
2022/05/06 00:02:30;;;;;;;;;;;;;;;11.07;80.08;96977.66;4889582;29;19954;-73
2022/05/06 00:04:55;;;;;;;;;;;;;;;11.08;80.08;96971.38;4891122;29;20053;-73
2022/05/06 00:07:21;;;;;;;;;;;;;;;11.09;80.30;96967.75;4892903;29;19968;-73
2022/05/06 00:09:47;;;;;;;;;;;;;;;11.10;80.05;96965.94;4887275;29;19973;-73
2022/05/06 00:12:17;;;;;;;;;;;;;;;11.09;80.05;96970.41;4886469;29;19997;-73
2022/05/06 00:14:43;;;;;;;;;;;;;;;11.10;80.36;96974.63;4893947;29;19963;-74
2022/05/06 00:17:09;;;;;;;;;;;;;;;11.10;79.90;96965.94;4886470;29;19957;-73
2022/05/06 00:19:35;;;;;;;;;;;;;;;11.12;79.84;96969.16;4888853;29;20284;-74
2022/05/06 00:22:01;;;;;;;;;;;;;;;11.10;79.56;96966.75;4889726;29;20004;-74
2022/05/06 00:24:28;;;;;;;;;;;;;;;11.10;79.90;96965.94;4890316;29;20379;-74
2022/05/06 00:26:55;;;;;;;;;;;;;;;11.09;79.65;96959.91;4893528;29;19959;-73
2022/05/06 00:29:21;;;;;;;;;;;;;;;11.09;79.46;96964.34;4890455;29;19979;-73
2022/05/06 00:31:47;;;;;;;;;;;;;;;11.11;79.17;96959.69;4867335;29;20017;-73
2022/05/06 00:34:13;;;;;;;;;;;;;;;11.11;79.53;96963.13;4893656;29;20303;-73
2022/05/06 00:36:39;;;;;;;;;;;;;;;11.09;79.35;96965.13;4886923;29;20024;-73
2022/05/06 00:39:05;;;;;;;;;;;;;;;11.07;79.34;96964.53;4885692;29;19960;-73
2022/05/06 00:41:34;;;;;;;;;;;;;;;11.08;79.91;96967.97;4891098;29;20465;-73
2022/05/06 00:44:01;;;;;;;;;;;;;;;11.08;79.58;96965.34;4896133;29;19965;-73
2022/05/06 00:46:27;;;;;;;;;;;;;;;11.10;79.47;96963.31;4885823;29;19961;-73
2022/05/06 00:48:55;;;;;;;;;;;;;;;11.09;79.48;96951.22;4885865;29;20050;-73
2022/05/06 00:51:21;;;;;;;;;;;;;;;11.10;79.51;96958.88;4898343;29;19970;-73
2022/05/06 00:53:47;;;;;;;;;;;;;;;11.11;79.49;96960.50;4893713;29;19964;-73
2022/05/06 00:56:15;;;;;;;;;;;;;;;11.12;79.63;96956.84;4891056;29;19969;-73
2022/05/06 00:58:42;;;;;;;;;;;;;;;11.13;79.71;96963.72;4887537;29;19963;-73
2022/05/06 01:01:08;;;;;;;;;;;;;;;11.14;79.22;96961.88;4897832;29;20424;-73
2022/05/06 01:03:34;;;;;;;;;;;;;;;11.14;79.59;96961.88;4892692;29;20056;-73
2022/05/06 01:06:03;;;;;;;;;;;;;;;11.12;79.45;96959.47;4888942;29;20402;-73
2022/05/06 01:08:29;;;;;;;;;;;;;;;11.14;79.42;96962.69;4891143;29;19955;-73
2022/05/06 01:10:55;;;;;;;;;;;;;;;11.14;79.60;96961.88;4891063;29;20368;-73
2022/05/06 01:13:21;;;;;;;;;;;;;;;11.13;79.61;96961.09;4890986;29;19963;-73
2022/05/06 01:15:48;;;;;;;;;;;;;;;11.14;79.65;96959.25;4897518;29;20026;-73
2022/05/06 01:18:13;;;;;;;;;;;;;;;11.11;79.93;96952.63;4891348;29;20356;-73
2022/05/06 01:20:44;;;;;;;;;;;;;;;11.10;80.14;96952.81;4888360;29;19986;-73
2022/05/06 01:23:11;;;;;;;;;;;;;;;11.08;79.95;96952.22;4882768;29;19971;-73
2022/05/06 01:25:37;;;;;;;;;;;;;;;11.06;79.77;96955.03;4882517;29;19982;-73
2022/05/06 01:28:04;;;;;;;;;;;;;;;11.05;79.80;96961.31;4882461;29;20359;-73
2022/05/06 01:30:44;;;;;;;;;;;;;;;11.07;79.16;96961.13;4882520;29;19978;-73
2022/05/06 01:33:11;;;;;;;;;;;;;;;11.04;79.55;96962.31;4882286;29;20411;-73
2022/05/06 01:35:43;;;;;;;;;;;;;;;11.04;79.94;96962.31;4882234;29;19967;-73
2022/05/06 01:38:11;;;;;;;;;;;;;;;11.04;79.85;96959.69;4882606;29;19968;-74
2022/05/06 01:40:44;;;;;;;;;;;;;;;11.06;79.84;96972.63;4882318;29;19959;-73
2022/05/06 01:43:13;;;;;;;;;;;;;;;11.02;79.75;96964.34;4882506;29;19958;-73
2022/05/06 01:45:40;;;;;;;;;;;;;;;11.03;80.14;96979.09;4882349;29;19973;-73
2022/05/06 01:48:08;;;;;;;;;;;;;;;11.03;79.93;96973.03;4882042;29;19962;-73
2022/05/06 01:50:36;;;;;;;;;;;;;;;11.01;80.11;96978.50;4881964;29;19983;-73
2022/05/06 01:53:02;;;;;;;;;;;;;;;10.99;79.88;96971.84;4882029;29;19968;-73
2022/05/06 01:55:28;;;;;;;;;;;;;;;10.98;80.70;96971.03;4882172;29;19964;-73
2022/05/06 01:57:54;;;;;;;;;;;;;;;10.97;80.66;96972.03;4881991;29;19960;-73
2022/05/06 02:00:20;;;;;;;;;;;;;;;10.96;80.38;96962.53;4881950;29;20004;-73
2022/05/06 02:02:45;;;;;;;;;;;;;;;10.95;80.35;96964.38;4882240;29;19961;-73
2022/05/06 02:05:17;;;;;;;;;;;;;;;10.94;80.37;96967.19;4881695;29;20005;-73
2022/05/06 02:07:44;;;;;;;;;;;;;;;10.93;81.08;96965.59;4881773;29;20434;-73
2022/05/06 02:10:10;;;;;;;;;;;;;;;10.93;81.36;96966.41;4881697;29;19971;-73
2022/05/06 02:12:36;;;;;;;;;;;;;;;10.94;81.13;96965.41;4881559;29;20641;-73
2022/05/06 02:15:02;;;;;;;;;;;;;;;10.95;80.79;96964.38;4881852;29;19966;-73
2022/05/06 02:17:29;;;;;;;;;;;;;;;10.95;81.18;96963.56;4881277;29;19959;-73
2022/05/06 02:19:55;;;;;;;;;;;;;;;10.95;80.94;96961.75;4884496;29;20343;-73
2022/05/06 02:22:21;;;;;;;;;;;;;;;10.97;81.02;96958.94;4890463;29;19961;-73
2022/05/06 02:24:47;;;;;;;;;;;;;;;10.96;80.48;96960.75;4873915;29;19962;-73
2022/05/06 02:27:13;;;;;;;;;;;;;;;10.95;80.66;96963.56;4889421;29;19965;-73
2022/05/06 02:33:12;;;;;;;;;;;;;;;10.92;80.92;96970.06;4892164;29;20009;-73
2022/05/06 02:35:10;;;;;;;;;;;;;;;10.93;80.92;96970.84;4889033;29;20418;-73
2022/05/06 02:37:35;;;;;;;;;;;;;;;10.92;81.12;96971.88;4889739;29;19969;-73
2022/05/06 02:40:02;;;;;;;;;;;;;;;10.90;80.60;96971.28;4889477;29;20463;-73
2022/05/06 02:42:29;;;;;;;;;;;;;;;10.88;80.90;96978.53;4893053;29;19959;-73
2022/05/06 02:44:54;;;;;;;;;;;;;;;10.88;81.14;96978.53;4884870;29;20486;-74
2022/05/06 02:47:20;;;;;;;;;;;;;;;10.87;80.96;96972.47;4896217;29;19970;-73
2022/05/06 02:49:46;;;;;;;;;;;;;;;10.87;80.87;96972.47;4890184;29;20039;-73
2022/05/06 02:52:12;;;;;;;;;;;;;;;10.87;81.65;96969.06;4887193;29;19962;-73
2022/05/06 02:54:38;;;;;;;;;;;;;;;10.87;81.66;96964.59;4891272;29;20294;-73
2022/05/06 02:57:04;;;;;;;;;;;;;;;10.87;81.59;96961.97;4889829;29;19971;-73
2022/05/06 02:59:33;;;;;;;;;;;;;;;10.87;81.49;96963.81;4893676;29;19966;-73
2022/05/06 03:01:59;;;;;;;;;;;;;;;10.87;81.19;96964.59;4888625;29;19969;-73
2022/05/06 03:04:25;;;;;;;;;;;;;;;10.85;81.21;96963.19;4885971;29;20326;-74
2022/05/06 03:06:52;;;;;;;;;;;;;;;10.83;81.56;96963.41;4891908;29;19959;-73
2022/05/06 03:09:17;;;;;;;;;;;;;;;10.84;81.54;96962.41;4889816;29;19970;-73
2022/05/06 03:11:43;;;;;;;;;;;;;;;10.81;81.68;96969.88;4889179;29;20357;-73
2022/05/06 03:14:09;;;;;;;;;;;;;;;10.79;81.21;96959.56;4888834;29;19973;-73
2022/05/06 03:16:35;;;;;;;;;;;;;;;10.77;81.86;96962.44;4887795;29;20012;-74
2022/05/06 03:19:01;;;;;;;;;;;;;;;10.74;82.10;96960.19;4889697;29;19980;-73
2022/05/06 03:21:27;;;;;;;;;;;;;;;10.72;81.85;96962.22;4892981;29;20008;-73
2022/05/06 03:23:53;;;;;;;;;;;;;;;10.72;82.33;96962.22;4891367;29;19967;-73
2022/05/06 03:26:19;;;;;;;;;;;;;;;10.72;82.11;96964.84;4888687;29;19961;-73
2022/05/06 03:28:46;;;;;;;;;;;;;;;10.69;82.32;96956.59;4887805;29;19964;-73
2022/05/06 03:31:13;;;;;;;;;;;;;;;10.67;83.02;96962.03;4893507;29;19976;-73
2022/05/06 03:33:42;;;;;;;;;;;;;;;10.65;82.76;96958.81;4891131;29;19971;-74
2022/05/06 03:36:09;;;;;;;;;;;;;;;10.63;82.06;96955.59;4886308;29;20433;-74
2022/05/06 03:38:35;;;;;;;;;;;;;;;10.62;82.64;96958.41;4887939;29;19953;-73
2022/05/06 03:41:01;;;;;;;;;;;;;;;10.60;82.83;96960.44;4888171;29;19967;-73
2022/05/06 03:43:27;;;;;;;;;;;;;;;10.59;82.73;96956.22;4886871;29;19963;-73
2022/05/06 03:45:53;;;;;;;;;;;;;;;10.57;83.38;96956.41;4893254;29;19991;-73
2022/05/06 03:48:24;;;;;;;;;;;;;;;10.58;82.94;96963.25;4889263;29;19971;-74
2022/05/06 03:53:35;;;;;;;;;;;;;;;10.55;83.39;96961.06;4888997;29;19969;-74
2022/05/06 03:56:02;;;;;;;;;;;;;;;10.55;83.55;96956.63;4886281;29;19967;-73
2022/05/06 03:58:28;;;;;;;;;;;;;;;10.55;83.96;96961.84;4895822;29;20324;-73
2022/05/06 04:00:54;;;;;;;;;;;;;;;10.55;84.00;96955.81;4888641;29;20010;-74
2022/05/06 04:03:20;;;;;;;;;;;;;;;10.55;83.76;96968.94;4884010;29;20307;-73
2022/05/06 04:05:46;;;;;;;;;;;;;;;10.55;83.79;96968.94;4897188;29;19961;-74
2022/05/06 04:08:11;;;;;;;;;;;;;;;10.55;82.96;96972.34;4886342;29;20480;-74
2022/05/06 04:10:37;;;;;;;;;;;;;;;10.55;82.90;96974.16;4892693;29;20027;-73
2022/05/06 04:13:03;;;;;;;;;;;;;;;10.56;83.21;96979.22;4890124;29;19962;-73
2022/05/06 04:15:29;;;;;;;;;;;;;;;10.55;83.68;96988.09;4871087;29;19961;-73
2022/05/06 04:17:55;;;;;;;;;;;;;;;10.53;83.32;96982.22;4891268;29;20334;-74
2022/05/06 04:25:50;;;;;;;;;;;;;;;10.54;83.54;96991.72;4892384;29;20403;-73
2022/05/06 04:28:16;;;;;;;;;;;;;;;10.56;83.50;96991.50;4892487;29;20001;-73
2022/05/06 04:30:42;;;;;;;;;;;;;;;10.57;83.50;96995.75;4893070;29;20387;-73
2022/05/06 04:33:08;;;;;;;;;;;;;;;10.57;83.70;96993.94;4892313;29;19963;-73
2022/05/06 04:35:34;;;;;;;;;;;;;;;10.58;83.56;96994.72;4894410;29;19973;-73
2022/05/06 04:38:01;;;;;;;;;;;;;;;10.58;84.09;96986.84;4893780;29;19960;-73
2022/05/06 04:40:27;;;;;;;;;;;;;;;10.60;83.55;96997.97;4893073;29;20418;-73
2022/05/06 04:42:52;;;;;;;;;;;;;;;10.60;83.68;96994.53;4888226;29;19971;-73
2022/05/06 04:45:18;;;;;;;;;;;;;;;10.59;83.80;97008.66;4891939;29;19969;-73
2022/05/06 04:47:44;;;;;;;;;;;;;;;10.60;83.83;97002.41;4893043;29;19979;-73
2022/05/06 04:50:10;;;;;;;;;;;;;;;10.60;83.97;97011.06;4893610;29;20430;-73
2022/05/06 04:52:36;;;;;;;;;;;;;;;10.60;83.85;97013.69;4892083;29;20341;-73
2022/05/06 04:55:02;;;;;;;;;;;;;;;10.60;84.27;97018.94;4893192;29;20433;-74
2022/05/06 04:57:28;;;;;;;;;;;;;;;10.62;84.58;97016.13;4886641;29;20441;-73
2022/05/06 04:59:54;;;;;;;;;;;;;;;10.63;83.89;97020.38;4892599;29;20009;-74
2022/05/06 05:02:20;;;;;;;;;;;;;;;10.64;84.17;97014.09;4895574;29;20413;-73
2022/05/06 05:04:46;;;;;;;;;;;;;;;10.65;85.04;97021.78;4891610;29;20421;-74
2022/05/06 05:07:12;;;;;;;;;;;;;;;10.65;84.60;97019.16;4889041;29;19961;-73
2022/05/06 05:09:38;;;;;;;;;;;;;;;10.66;84.52;97014.69;4892705;29;20385;-74
2022/05/06 05:12:04;;;;;;;;;;;;;;;10.66;85.35;97018.13;4889279;29;20018;-74
2022/05/06 05:14:33;;;;;;;;;;;;;;;10.67;85.44;97019.75;4894167;29;19968;-73
2022/05/06 05:16:59;;;;;;;;;;;;;;;10.68;85.11;97020.56;4890915;29;19962;-73
2022/05/06 05:19:24;;;;;;;;;;;;;;;10.68;85.97;97021.34;4892561;29;19960;-73
2022/05/06 05:22:10;;;;;;;;;;;;;;;10.69;85.53;97020.34;4868455;29;19967;-73
2022/05/06 05:24:36;;;;;;;;;;;;;;;10.69;85.58;97014.31;4885736;29;19967;-73
2022/05/06 05:27:02;;;;;;;;;;;;;;;10.68;85.91;97025.78;4894277;29;19963;-73
2022/05/06 05:29:28;;;;;;;;;;;;;;;10.67;85.74;97021.56;4891848;29;19972;-74
2022/05/06 05:31:55;;;;;;;;;;;;;;;10.68;86.14;97017.94;4890947;29;19988;-75
2022/05/06 05:34:21;;;;;;;;;;;;;;;10.69;86.61;97020.34;4885914;29;19954;-74
2022/05/06 05:36:47;;;;;;;;;;;;;;;10.68;86.90;97017.94;4892538;29;19954;-74
2022/05/06 05:39:13;;;;;;;;;;;;;;;10.69;86.68;97022.19;4894909;29;19984;-73
2022/05/06 05:41:38;;;;;;;;;;;;;;;10.69;86.16;97022.19;4891806;29;19963;-73
2022/05/06 05:49:34;;;;;;;;;;;;;;;10.70;87.36;97024.56;4892160;29;20419;-73
2022/05/06 05:52:00;;;;;;;;;;;;;;;10.72;87.28;97019.94;4892504;29;19979;-73
2022/05/06 05:54:29;;;;;;;;;;;;;;;10.72;87.51;97019.13;4891536;29;19968;-74
2022/05/06 05:56:55;;;;;;;;;;;;;;;10.70;86.48;97023.78;4874766;29;19965;-73
2022/05/06 05:59:23;;;;;;;;;;;;;;;10.73;88.28;97020.72;4890691;29;19967;-73
2022/05/06 06:01:49;;;;;;;;;;;;;;;10.75;87.64;97032.66;4893072;29;19953;-73
2022/05/06 06:04:18;;;;;;;;;;;;;;;10.75;88.04;97032.66;4888918;29;19962;-73
2022/05/06 06:06:43;;;;;;;;;;;;;;;10.76;87.69;97022.97;4889942;29;20361;-73
2022/05/06 06:09:09;;;;;;;;;;;;;;;10.73;87.50;97026.81;4889744;29;19954;-73
2022/05/06 06:11:35;;;;;;;;;;;;;;;10.71;87.40;97031.44;4890667;29;19983;-74
2022/05/06 06:14:02;;;;;;;;;;;;;;;10.68;86.91;97020.56;4892404;29;19970;-73
2022/05/06 06:16:29;;;;;;;;;;;;;;;10.68;88.17;97023.19;4894900;29;19969;-74
2022/05/06 06:19:00;;;;;;;;;;;;;;;10.66;87.98;97022.56;4891842;29;19968;-75
2022/05/06 06:21:26;;;;;;;;;;;;;;;10.63;88.03;97023.00;4881487;29;19987;-73
2022/05/06 06:23:52;;;;;;;;;;;;;;;10.57;87.45;97022.78;4881467;29;20342;-74
2022/05/06 06:26:18;;;;;;;;;;;;;;;10.56;88.00;97021.19;4881425;29;19966;-74
2022/05/06 06:28:45;;;;;;;;;;;;;;;10.57;88.92;97029.84;4881519;29;20522;-74
2022/05/06 06:31:10;;;;;;;;;;;;;;;10.56;87.68;97029.06;4881464;29;20002;-73
2022/05/06 06:33:39;;;;;;;;;;;;;;;10.59;88.05;97037.53;4881172;29;20438;-73
2022/05/06 06:36:05;;;;;;;;;;;;;;;10.60;89.14;97033.88;4881398;29;20325;-74
2022/05/06 06:38:31;;;;;;;;;;;;;;;10.59;88.13;97038.31;4880827;29;19976;-74
2022/05/06 06:40:57;;;;;;;;;;;;;;;10.59;87.37;97040.94;4881166;29;19957;-73
2022/05/06 06:43:23;;;;;;;;;;;;;;;10.59;88.64;97048.00;4881245;29;19990;-74
2022/05/06 06:45:49;;;;;;;;;;;;;;;10.59;88.28;97048.00;4881293;29;19970;-75
2022/05/06 06:48:15;;;;;;;;;;;;;;;10.59;87.82;97037.53;4879785;29;19969;-74
2022/05/06 06:50:41;;;;;;;;;;;;;;;10.58;88.28;97041.94;4880955;29;19985;-73
2022/05/06 06:53:06;;;;;;;;;;;;;;;10.58;88.17;97039.31;4880917;29;20339;-73
2022/05/06 06:55:32;;;;;;;;;;;;;;;10.59;88.49;97037.53;4880798;29;19960;-74
2022/05/06 06:57:58;;;;;;;;;;;;;;;10.62;88.90;97043.16;4881014;29;19971;-73
2022/05/06 07:00:24;;;;;;;;;;;;;;;10.64;87.49;97048.19;4880711;29;19954;-73
2022/05/06 07:02:50;;;;;;;;;;;;;;;10.70;87.81;97040.31;4880784;29;19956;-73
2022/05/06 07:05:16;;;;;;;;;;;;;;;10.74;88.12;97036.28;4880705;29;20406;-73
2022/05/06 07:13:11;;;;;;;;;;;;;;;10.87;86.94;97047.75;4880746;29;19974;-73
2022/05/06 07:15:37;;;;;;;;;;;;;;;10.90;87.29;97048.16;4880642;29;19970;-73
2022/05/06 07:18:03;;;;;;;;;;;;;;;10.94;87.04;97056.41;4880466;29;20406;-73
2022/05/06 07:20:29;;;;;;;;;;;;;;;10.95;86.72;97063.31;4875045;29;19990;-74
2022/05/06 07:22:54;;;;;;;;;;;;;;;10.99;86.40;97059.25;4880552;29;19966;-74
2022/05/06 07:25:20;;;;;;;;;;;;;;;11.05;86.45;97062.88;4880238;29;20065;-74
2022/05/06 07:27:46;;;;;;;;;;;;;;;11.09;85.79;97066.72;4880493;29;19965;-73
2022/05/06 07:30:12;;;;;;;;;;;;;;;11.11;85.99;97065.50;4880173;29;19968;-73
2022/05/06 07:32:38;;;;;;;;;;;;;;;11.14;85.74;97061.63;4894673;29;20350;-73
2022/05/06 07:35:04;;;;;;;;;;;;;;;11.17;85.51;97053.34;4880585;29;20016;-73
2022/05/06 07:37:33;;;;;;;;;;;;;;;11.23;84.81;97054.34;4880153;29;19964;-73
2022/05/06 07:40:03;;;;;;;;;;;;;;;11.25;83.61;97052.31;4880291;29;19961;-74
2022/05/06 07:42:30;;;;;;;;;;;;;;;11.30;83.71;97058.56;4879968;29;20419;-73
2022/05/06 07:44:57;;;;;;;;;;;;;;;11.35;83.56;97056.13;4880186;29;19962;-73
2022/05/06 07:47:23;;;;;;;;;;;;;;;11.38;83.08;97060.97;4880114;29;20305;-74
2022/05/06 07:49:49;;;;;;;;;;;;;;;11.41;82.76;97072.06;4879760;29;19969;-73
2022/05/06 07:52:15;;;;;;;;;;;;;;;11.43;82.66;97070.84;4880078;29;20028;-73
2022/05/06 07:54:41;;;;;;;;;;;;;;;11.46;83.11;97064.38;4879941;29;19989;-73
2022/05/06 07:57:06;;;;;;;;;;;;;;;11.44;81.73;97055.88;4880123;29;19959;-73
2022/05/06 07:59:32;;;;;;;;;;;;;;;11.43;81.11;97064.78;4879913;29;19962;-74
2022/05/06 08:04:48;;;;;;;;;;;;;;;11.41;81.34;97069.44;4868395;29;19956;-73
2022/05/06 08:07:14;;;;;;;;;;;;;;;11.42;81.15;97084.97;4880087;29;19960;-74
2022/05/06 08:09:40;;;;;;;;;;;;;;;11.43;81.65;97076.09;4879874;29;19954;-73
2022/05/06 08:12:07;;;;;;;;;;;;;;;11.48;80.96;97076.28;4879936;29;19976;-73
2022/05/06 08:14:32;;;;;;;;;;;;;;;11.49;80.37;97074.47;4879787;29;19962;-73
2022/05/06 08:17:01;;;;;;;;;;;;;;;11.50;79.46;97076.88;4879935;29;20061;-73
2022/05/06 08:19:27;;;;;;;;;;;;;;;11.48;79.53;97076.28;4879692;29;19972;-73
2022/05/06 08:21:53;;;;;;;;;;;;;;;11.53;79.22;97073.03;4879839;29;19972;-73
2022/05/06 08:24:20;;;;;;;;;;;;;;;11.56;79.81;97075.25;4879814;29;20356;-73
2022/05/06 08:26:46;;;;;;;;;;;;;;;11.63;79.86;97075.22;4879656;29;19954;-73
2022/05/06 08:29:13;;;;;;;;;;;;;;;11.70;79.43;97076.00;4879691;29;19959;-74
2022/05/06 08:31:38;;;;;;;;;;;;;;;11.71;79.14;97088.91;4879637;29;20435;-74
2022/05/06 08:34:07;;;;;;;;;;;;;;;11.73;78.28;97084.25;4879519;29;19960;-74
2022/05/06 08:36:34;;;;;;;;;;;;;;;11.75;79.22;97084.84;4880093;29;19978;-73
2022/05/06 08:39:00;;;;;;;;;;;;;;;11.79;78.48;97083.41;4879850;29;20403;-73
2022/05/06 08:41:27;;;;;;;;;;;;;;;11.85;78.18;97079.16;4879761;29;20327;-73
2022/05/06 08:43:53;;;;;;;;;;;;;;;11.91;78.17;97088.06;4879718;29;19965;-73
2022/05/06 08:52:02;;;;;;;;;;;;;;;12.01;76.81;97088.41;4850925;29;19977;-73
2022/05/06 08:54:28;;;;;;;;;;;;;;;12.04;77.25;97097.69;4879582;29;19960;-73
2022/05/06 08:56:56;;;;;;;;;;;;;;;12.05;76.62;97086.94;4879477;29;19962;-73
2022/05/06 08:59:22;;;;;;;;;;;;;;;12.15;76.66;97083.88;4879336;29;19971;-72
2022/05/06 09:02:09;;;;;;;;;;;;;;;12.20;77.39;97099.84;4879936;29;19955;-73
2022/05/06 09:04:39;;;;;;;;;;;;;;;12.18;75.86;97092.16;4882850;29;19959;-73
2022/05/06 09:07:20;;;;;;;;;;;;;;;12.18;75.90;97096.59;4882918;29;19962;-73
2022/05/06 09:10:10;;;;;;;;;;;;;;;12.18;76.59;97104.50;4882746;29;19961;-73
2022/05/06 09:12:41;;;;;;;;;;;;;;;12.16;77.17;97114.41;4882669;29;20339;-73
2022/05/06 09:17:52;;;;;;;;;;;;;;;12.11;76.30;97099.25;4882642;29;19966;-73
2022/05/06 09:20:19;;;;;;;;;;;;;;;12.07;75.93;97100.69;4885079;29;19985;-73
2022/05/06 09:22:45;;;;;;;;;;;;;;;12.08;76.03;97098.88;4891246;29;19966;-73
2022/05/06 09:25:11;;;;;;;;;;;;;;;12.11;76.27;97104.50;4889463;29;19967;-73
2022/05/06 09:27:37;;;;;;;;;;;;;;;12.14;75.85;97101.47;4888904;29;20410;-73
2022/05/06 09:30:08;;;;;;;;;;;;;;;12.22;75.42;97107.47;4890403;29;19973;-74
2022/05/06 09:32:36;;;;;;;;;;;;;;;12.39;73.90;97092.81;4895730;29;19971;-73
2022/05/06 09:35:09;;;;;;;;;;;;;;;12.58;74.63;97099.75;4893092;29;19963;-73
2022/05/06 09:37:42;;;;;;;;;;;;;;;12.73;72.44;97077.59;4890697;29;19954;-73
2022/05/06 09:40:08;;;;;;;;;;;;;;;12.76;73.22;97090.28;4875333;29;19965;-73
2022/05/06 09:42:35;;;;;;;;;;;;;;;12.77;73.61;97076.94;4891860;29;20415;-76
2022/05/06 09:45:01;;;;;;;;;;;;;;;12.91;72.58;97082.88;4894732;29;19961;-73
2022/05/06 09:47:27;;;;;;;;;;;;;;;13.11;72.25;97079.25;4891763;29;19967;-73
2022/05/06 09:49:53;;;;;;;;;;;;;;;13.19;71.50;97077.13;4889105;29;19966;-74
2022/05/06 09:52:19;;;;;;;;;;;;;;;13.20;72.17;97084.00;4897263;29;19978;-73
2022/05/06 09:54:46;;;;;;;;;;;;;;;13.19;71.57;97089.50;4891563;29;19962;-72
2022/05/06 09:57:13;;;;;;;;;;;;;;;13.29;71.51;97091.66;4893759;29;19965;-73
2022/05/06 09:59:39;;;;;;;;;;;;;;;13.42;71.78;97090.69;4886256;29;19956;-73
2022/05/06 10:02:05;;;;;;;;;;;;;;;13.45;71.13;97087.63;4890533;29;19960;-74
2022/05/06 10:04:31;;;;;;;;;;;;;;;13.51;70.46;97079.66;4892774;29;19974;-73
2022/05/06 10:07:00;;;;;;;;;;;;;;;13.57;69.60;97076.13;4890562;29;19969;-73
2022/05/06 10:09:27;;;;;;;;;;;;;;;13.57;68.35;97070.06;4890750;29;19958;-73
2022/05/06 10:11:54;;;;;;;;;;;;;;;13.59;69.19;97076.72;4892216;29;20354;-73
2022/05/06 10:14:20;;;;;;;;;;;;;;;13.68;70.12;97089.59;4891150;29;19972;-73
2022/05/06 10:16:47;;;;;;;;;;;;;;;13.71;68.77;97075.97;4888023;29;19963;-73
2022/05/06 10:19:33;;;;;;;;;;;;;;;13.75;68.60;97072.69;4895214;29;19978;-73
2022/05/06 10:22:00;;;;;;;;;;;;;;;13.96;67.55;97065.28;4887865;29;19981;-75
2022/05/06 10:24:37;;;;;;;;;;;;;;;14.11;68.22;97070.16;4888018;29;19974;-74
2022/05/06 10:27:20;;;;;;;;;;;;;;;14.24;66.65;97054.16;4891677;29;20408;-73
2022/05/06 10:32:49;;;;;;;;;;;;;;;14.17;66.03;97050.78;4891763;29;20348;-73
2022/05/06 10:35:15;;;;;;;;;;;;;;;14.17;66.57;97062.19;4883911;29;19960;-73
2022/05/06 10:37:44;;;;;;;;;;;;;;;14.20;66.58;97059.06;4887459;29;20472;-73
2022/05/06 10:40:22;;;;;;;;;;;;;;;14.30;67.18;97065.63;4888094;29;19969;-73
2022/05/06 10:42:48;;;;;;;;;;;;;;;14.37;65.51;97047.88;4892285;29;19955;-73
2022/05/06 10:45:23;;;;;;;;;;;;;;;14.43;66.36;97056.72;4892062;29;20080;-73
2022/05/06 10:47:50;;;;;;;;;;;;;;;14.47;64.94;97037.56;4890992;29;19954;-73
2022/05/06 10:50:18;;;;;;;;;;;;;;;14.55;67.01;97055.75;4890285;29;19966;-74
2022/05/06 10:52:45;;;;;;;;;;;;;;;14.65;63.32;97017.41;4890970;29;19978;-73
2022/05/06 10:55:13;;;;;;;;;;;;;;;14.76;66.35;97053.53;4887770;29;19981;-73
2022/05/06 10:57:49;;;;;;;;;;;;;;;14.83;64.21;97033.13;4895233;29;20328;-74
2022/05/06 11:00:15;;;;;;;;;;;;;;;14.89;65.40;97039.31;4893769;29;19970;-74
2022/05/06 11:02:41;;;;;;;;;;;;;;;14.90;61.67;97007.41;4887490;29;19957;-73
2022/05/06 11:05:20;;;;;;;;;;;;;;;15.04;63.93;97036.22;4886730;29;19971;-73
2022/05/06 11:07:48;;;;;;;;;;;;;;;15.18;62.86;97022.53;4885876;29;19965;-73
2022/05/06 11:10:19;;;;;;;;;;;;;;;15.38;61.64;96997.53;4894904;29;19967;-73
2022/05/06 11:12:45;;;;;;;;;;;;;;;15.58;60.94;96994.47;4891079;29;19973;-73
2022/05/06 11:15:13;;;;;;;;;;;;;;;15.70;62.23;97005.81;4892162;29;20343;-73
2022/05/06 11:17:39;;;;;;;;;;;;;;;15.74;61.00;96998.25;4888399;29;19963;-73
2022/05/06 11:20:14;;;;;;;;;;;;;;;15.79;61.18;96995.66;4885363;29;20010;-73
2022/05/06 11:22:56;;;;;;;;;;;;;;;15.94;61.80;97009.19;4879514;29;19961;-73
2022/05/06 11:25:22;;;;;;;;;;;;;;;16.15;62.55;97018.28;4879765;29;19973;-73
2022/05/06 11:27:49;;;;;;;;;;;;;;;16.19;60.24;96986.81;4872057;29;19956;-73
2022/05/06 11:30:17;;;;;;;;;;;;;;;16.19;62.30;97011.47;4880350;29;19987;-73
2022/05/06 11:32:50;;;;;;;;;;;;;;;16.23;59.91;96990.59;4880329;29;19974;-73
2022/05/06 11:35:20;;;;;;;;;;;;;;;16.40;60.26;96996.72;4880231;29;19955;-74
2022/05/06 11:37:47;;;;;;;;;;;;;;;16.61;62.00;97007.63;4880469;29;19968;-73
2022/05/06 11:42:52;;;;;;;;;;;;;;;17.02;61.41;96992.31;4880184;29;19970;-73
2022/05/06 11:48:06;;;;;;;;;;;;;;;17.20;58.32;96951.47;4871093;29;19978;-73
2022/05/06 11:50:36;;;;;;;;;;;;;;;17.21;56.57;96937.94;4880248;29;19970;-73
2022/05/06 11:53:04;;;;;;;;;;;;;;;17.17;59.68;96975.78;4880250;29;20000;-73
2022/05/06 11:55:30;;;;;;;;;;;;;;;17.17;58.70;96965.97;4879966;29;19964;-73
2022/05/06 11:57:56;;;;;;;;;;;;;;;17.18;60.99;96986.16;4879946;29;19962;-73
2022/05/06 12:00:23;;;;;;;;;;;;;;;17.24;57.92;96955.22;4880447;29;20038;-73
2022/05/06 12:02:50;;;;;;;;;;;;;;;17.25;56.18;96925.78;4879970;29;19967;-73
2022/05/06 12:05:16;;;;;;;;;;;;;;;17.29;61.70;97007.47;4879804;29;19962;-73
2022/05/06 12:07:46;;;;;;;;;;;;;;;17.24;57.37;96953.34;4874255;29;20336;-73
2022/05/06 12:10:32;;;;;;;;;;;;;;;17.18;56.75;96946.41;4879790;29;19966;-73
2022/05/06 12:13:08;;;;;;;;;;;;;;;17.15;57.77;96964.63;4871451;29;19984;-73
2022/05/06 12:15:33;;;;;;;;;;;;;;;17.08;55.39;96926.94;4879937;29;19959;-72
2022/05/06 12:18:00;;;;;;;;;;;;;;;17.06;57.78;96963.47;4879736;29;19966;-74
2022/05/06 12:20:37;;;;;;;;;;;;;;;17.06;57.81;96964.25;4879611;29;20474;-73
2022/05/06 12:23:04;;;;;;;;;;;;;;;17.08;55.58;96937.53;4879953;29;19961;-73
2022/05/06 12:25:30;;;;;;;;;;;;;;;17.11;57.86;96959.00;4879602;29;19950;-73
2022/05/06 12:28:08;;;;;;;;;;;;;;;17.23;57.41;96949.09;4879810;29;19962;-73
2022/05/06 12:30:58;;;;;;;;;;;;;;;17.43;56.96;96951.19;4858529;29;19954;-73
2022/05/06 12:33:34;;;;;;;;;;;;;;;17.57;56.30;96938.31;4879413;29;19968;-73
2022/05/06 12:36:04;;;;;;;;;;;;;;;17.61;54.64;96928.81;4882124;29;19994;-74
2022/05/06 12:38:36;;;;;;;;;;;;;;;17.58;55.62;96921.34;4883357;29;20349;-73
2022/05/06 12:41:15;;;;;;;;;;;;;;;17.59;55.07;96928.25;4883334;29;19967;-73
2022/05/06 12:43:41;;;;;;;;;;;;;;;17.62;53.88;96914.50;4883234;29;19965;-74
2022/05/06 12:46:07;;;;;;;;;;;;;;;17.65;54.62;96913.19;4883239;29;20364;-73
2022/05/06 12:51:17;;;;;;;;;;;;;;;17.64;54.78;96916.91;4883157;29;19969;-73
2022/05/06 12:53:43;;;;;;;;;;;;;;;17.59;53.76;96907.03;4883085;29;20033;-73
2022/05/06 12:56:16;;;;;;;;;;;;;;;17.56;54.48;96910.19;4883014;29;19960;-75
2022/05/06 12:58:42;;;;;;;;;;;;;;;17.56;54.96;96922.66;4883210;29;19965;-73
2022/05/06 13:01:08;;;;;;;;;;;;;;;17.56;53.27;96901.44;4883126;29;19965;-73
2022/05/06 13:03:34;;;;;;;;;;;;;;;17.62;54.01;96901.25;4871597;29;19958;-74
2022/05/06 13:06:00;;;;;;;;;;;;;;;17.76;56.45;96928.13;4883045;29;19970;-72
2022/05/06 13:08:27;;;;;;;;;;;;;;;17.88;54.81;96906.00;4882879;29;20015;-73
2022/05/06 13:10:53;;;;;;;;;;;;;;;17.91;52.20;96884.25;4882343;29;19973;-74
2022/05/06 13:13:21;;;;;;;;;;;;;;;17.93;52.55;96888.28;4881906;29;20360;-73
2022/05/06 13:15:47;;;;;;;;;;;;;;;17.93;54.22;96901.53;4882815;29;19973;-73
2022/05/06 13:18:12;;;;;;;;;;;;;;;17.98;51.56;96874.25;4883092;29;19965;-73
2022/05/06 13:20:38;;;;;;;;;;;;;;;17.96;52.27;96885.09;4882525;29;19990;-73
2022/05/06 13:23:04;;;;;;;;;;;;;;;17.95;52.05;96877.38;4882355;29;20020;-73
2022/05/06 13:25:30;;;;;;;;;;;;;;;17.89;53.64;96892.47;4882716;29;19964;-72
2022/05/06 13:27:56;;;;;;;;;;;;;;;17.80;53.72;96900.06;4882787;29;20328;-74
2022/05/06 13:30:23;;;;;;;;;;;;;;;17.68;52.95;96893.31;4882571;29;20413;-73
2022/05/06 13:33:02;;;;;;;;;;;;;;;17.58;53.19;96897.50;4882537;29;19986;-73